sensor_id;sensor_type;location;lat;lon;timestamp;temperature;humidity
19039;DHT22;9652;49.014;12.052;2023-03-01T00:00:06;5.40;57.20
19039;DHT22;9652;49.014;12.052;2023-03-01T00:02:37;5.30;57.30
19039;DHT22;9652;49.014;12.052;2023-03-01T00:05:05;5.30;57.40
19039;DHT22;9652;49.014;12.052;2023-03-01T00:07:33;5.30;57.50
19039;DHT22;9652;49.014;12.052;2023-03-01T00:10:00;5.20;57.50
19039;DHT22;9652;49.014;12.052;2023-03-01T00:12:28;5.30;57.70
19039;DHT22;9652;49.014;12.052;2023-03-01T00:14:55;5.20;57.80
19039;DHT22;9652;49.014;12.052;2023-03-01T00:17:22;5.20;57.90
19039;DHT22;9652;49.014;12.052;2023-03-01T00:19:49;5.20;57.90
19039;DHT22;9652;49.014;12.052;2023-03-01T00:22:16;5.20;57.90
19039;DHT22;9652;49.014;12.052;2023-03-01T00:24:43;5.20;57.80
19039;DHT22;9652;49.014;12.052;2023-03-01T00:27:10;5.30;57.90
19039;DHT22;9652;49.014;12.052;2023-03-01T00:29:38;5.20;57.80
19039;DHT22;9652;49.014;12.052;2023-03-01T00:32:05;5.20;57.80
19039;DHT22;9652;49.014;12.052;2023-03-01T00:34:32;5.20;57.70
19039;DHT22;9652;49.014;12.052;2023-03-01T00:36:59;5.20;57.70
19039;DHT22;9652;49.014;12.052;2023-03-01T00:39:31;5.20;57.70
19039;DHT22;9652;49.014;12.052;2023-03-01T00:41:59;5.20;57.70
19039;DHT22;9652;49.014;12.052;2023-03-01T00:44:26;5.20;57.70
19039;DHT22;9652;49.014;12.052;2023-03-01T00:46:55;5.10;57.70
19039;DHT22;9652;49.014;12.052;2023-03-01T00:49:22;5.10;57.70
19039;DHT22;9652;49.014;12.052;2023-03-01T00:51:53;5.10;57.70
19039;DHT22;9652;49.014;12.052;2023-03-01T00:54:22;5.10;57.80
19039;DHT22;9652;49.014;12.052;2023-03-01T00:56:50;5.00;57.90
19039;DHT22;9652;49.014;12.052;2023-03-01T00:59:17;5.00;58.00
19039;DHT22;9652;49.014;12.052;2023-03-01T01:01:44;5.00;58.00
19039;DHT22;9652;49.014;12.052;2023-03-01T01:04:13;5.00;58.10
19039;DHT22;9652;49.014;12.052;2023-03-01T01:06:43;5.00;58.20
19039;DHT22;9652;49.014;12.052;2023-03-01T01:09:13;5.00;58.20
19039;DHT22;9652;49.014;12.052;2023-03-01T01:11:44;5.00;58.20
19039;DHT22;9652;49.014;12.052;2023-03-01T01:14:12;5.10;58.20
19039;DHT22;9652;49.014;12.052;2023-03-01T01:16:40;5.10;58.20
19039;DHT22;9652;49.014;12.052;2023-03-01T01:19:09;5.10;58.10
19039;DHT22;9652;49.014;12.052;2023-03-01T01:21:38;5.10;58.10
19039;DHT22;9652;49.014;12.052;2023-03-01T01:24:06;5.00;58.10
19039;DHT22;9652;49.014;12.052;2023-03-01T01:26:34;5.00;58.10
19039;DHT22;9652;49.014;12.052;2023-03-01T01:29:03;5.00;58.00
19039;DHT22;9652;49.014;12.052;2023-03-01T01:31:32;5.00;58.00
19039;DHT22;9652;49.014;12.052;2023-03-01T01:34:02;5.00;58.00
19039;DHT22;9652;49.014;12.052;2023-03-01T01:36:32;5.00;58.00
19039;DHT22;9652;49.014;12.052;2023-03-01T01:39:01;5.00;58.00
19039;DHT22;9652;49.014;12.052;2023-03-01T01:41:29;5.00;58.00
19039;DHT22;9652;49.014;12.052;2023-03-01T01:44:14;4.90;58.00
19039;DHT22;9652;49.014;12.052;2023-03-01T01:46:46;4.90;58.00
19039;DHT22;9652;49.014;12.052;2023-03-01T01:49:23;4.90;58.00
19039;DHT22;9652;49.014;12.052;2023-03-01T01:51:58;4.90;57.90
19039;DHT22;9652;49.014;12.052;2023-03-01T01:54:38;4.90;57.90
19039;DHT22;9652;49.014;12.052;2023-03-01T01:57:12;4.80;57.80
19039;DHT22;9652;49.014;12.052;2023-03-01T01:59:44;4.80;57.70
19039;DHT22;9652;49.014;12.052;2023-03-01T02:02:14;4.80;57.70
19039;DHT22;9652;49.014;12.052;2023-03-01T02:04:42;4.70;57.60
19039;DHT22;9652;49.014;12.052;2023-03-01T02:07:14;4.70;57.60
19039;DHT22;9652;49.014;12.052;2023-03-01T02:09:48;4.60;57.70
19039;DHT22;9652;49.014;12.052;2023-03-01T02:12:20;4.60;57.70
19039;DHT22;9652;49.014;12.052;2023-03-01T02:14:50;4.50;57.70
19039;DHT22;9652;49.014;12.052;2023-03-01T02:17:17;4.50;57.70
19039;DHT22;9652;49.014;12.052;2023-03-01T02:19:53;4.50;57.80
19039;DHT22;9652;49.014;12.052;2023-03-01T02:22:34;4.40;57.80
19039;DHT22;9652;49.014;12.052;2023-03-01T02:25:18;4.40;57.80
19039;DHT22;9652;49.014;12.052;2023-03-01T02:28:01;4.30;57.80
19039;DHT22;9652;49.014;12.052;2023-03-01T02:30:36;4.30;57.80
19039;DHT22;9652;49.014;12.052;2023-03-01T02:33:24;4.30;57.80
19039;DHT22;9652;49.014;12.052;2023-03-01T02:35:52;4.20;57.80
19039;DHT22;9652;49.014;12.052;2023-03-01T02:38:22;4.20;57.80
19039;DHT22;9652;49.014;12.052;2023-03-01T02:40:51;4.20;57.90
19039;DHT22;9652;49.014;12.052;2023-03-01T02:43:19;4.10;57.80
19039;DHT22;9652;49.014;12.052;2023-03-01T02:45:51;4.10;57.80
19039;DHT22;9652;49.014;12.052;2023-03-01T02:48:20;4.10;57.90
19039;DHT22;9652;49.014;12.052;2023-03-01T02:50:57;4.00;57.90
19039;DHT22;9652;49.014;12.052;2023-03-01T02:53:38;4.00;58.00
19039;DHT22;9652;49.014;12.052;2023-03-01T02:56:12;4.00;57.90
19039;DHT22;9652;49.014;12.052;2023-03-01T02:58:41;4.00;58.00
19039;DHT22;9652;49.014;12.052;2023-03-01T03:01:15;3.90;58.00
19039;DHT22;9652;49.014;12.052;2023-03-01T03:03:42;3.90;58.00
19039;DHT22;9652;49.014;12.052;2023-03-01T03:06:10;3.90;58.00
19039;DHT22;9652;49.014;12.052;2023-03-01T03:08:38;3.90;58.00
19039;DHT22;9652;49.014;12.052;2023-03-01T03:11:05;3.80;58.00
19039;DHT22;9652;49.014;12.052;2023-03-01T03:13:32;3.80;58.00
19039;DHT22;9652;49.014;12.052;2023-03-01T03:15:59;3.80;58.00
19039;DHT22;9652;49.014;12.052;2023-03-01T03:18:27;3.80;58.10
19039;DHT22;9652;49.014;12.052;2023-03-01T03:20:55;3.70;58.10
19039;DHT22;9652;49.014;12.052;2023-03-01T03:23:22;3.70;58.10
19039;DHT22;9652;49.014;12.052;2023-03-01T03:25:50;3.70;58.10
19039;DHT22;9652;49.014;12.052;2023-03-01T03:28:17;3.70;58.10
19039;DHT22;9652;49.014;12.052;2023-03-01T03:30:45;3.70;58.10
19039;DHT22;9652;49.014;12.052;2023-03-01T03:33:12;3.70;58.20
19039;DHT22;9652;49.014;12.052;2023-03-01T03:35:44;3.70;58.30
19039;DHT22;9652;49.014;12.052;2023-03-01T03:38:14;3.60;58.30
19039;DHT22;9652;49.014;12.052;2023-03-01T03:40:45;3.60;58.30
19039;DHT22;9652;49.014;12.052;2023-03-01T03:43:14;3.60;58.30
19039;DHT22;9652;49.014;12.052;2023-03-01T03:45:44;3.60;58.30
19039;DHT22;9652;49.014;12.052;2023-03-01T03:48:12;3.60;58.30
19039;DHT22;9652;49.014;12.052;2023-03-01T03:50:40;3.60;58.30
19039;DHT22;9652;49.014;12.052;2023-03-01T03:53:13;3.50;58.30
19039;DHT22;9652;49.014;12.052;2023-03-01T03:55:40;3.50;58.30
19039;DHT22;9652;49.014;12.052;2023-03-01T03:58:09;3.50;58.40
19039;DHT22;9652;49.014;12.052;2023-03-01T04:00:38;3.50;58.40
19039;DHT22;9652;49.014;12.052;2023-03-01T04:03:08;3.50;58.50
19039;DHT22;9652;49.014;12.052;2023-03-01T04:05:37;3.50;58.50
19039;DHT22;9652;49.014;12.052;2023-03-01T04:08:07;3.50;58.50
19039;DHT22;9652;49.014;12.052;2023-03-01T04:10:38;3.40;58.50
19039;DHT22;9652;49.014;12.052;2023-03-01T04:13:08;3.40;58.50
19039;DHT22;9652;49.014;12.052;2023-03-01T04:15:37;3.40;58.50
19039;DHT22;9652;49.014;12.052;2023-03-01T04:18:04;3.40;58.50
19039;DHT22;9652;49.014;12.052;2023-03-01T04:20:34;3.40;58.50
19039;DHT22;9652;49.014;12.052;2023-03-01T04:23:04;3.40;58.60
19039;DHT22;9652;49.014;12.052;2023-03-01T04:25:41;3.40;58.60
19039;DHT22;9652;49.014;12.052;2023-03-01T04:28:10;3.30;58.50
19039;DHT22;9652;49.014;12.052;2023-03-01T04:30:37;3.30;59.10
19039;DHT22;9652;49.014;12.052;2023-03-01T04:33:06;3.30;58.60
19039;DHT22;9652;49.014;12.052;2023-03-01T04:35:36;3.30;58.60
19039;DHT22;9652;49.014;12.052;2023-03-01T04:38:05;3.30;58.60
19039;DHT22;9652;49.014;12.052;2023-03-01T04:40:32;3.20;58.70
19039;DHT22;9652;49.014;12.052;2023-03-01T04:43:02;3.20;58.70
19039;DHT22;9652;49.014;12.052;2023-03-01T04:45:32;3.20;58.70
19039;DHT22;9652;49.014;12.052;2023-03-01T04:48:01;3.20;58.70
19039;DHT22;9652;49.014;12.052;2023-03-01T04:50:29;3.20;58.70
19039;DHT22;9652;49.014;12.052;2023-03-01T04:52:57;3.20;58.70
19039;DHT22;9652;49.014;12.052;2023-03-01T04:55:25;3.20;58.80
19039;DHT22;9652;49.014;12.052;2023-03-01T04:57:53;3.20;58.80
19039;DHT22;9652;49.014;12.052;2023-03-01T05:00:22;3.20;58.80
19039;DHT22;9652;49.014;12.052;2023-03-01T05:02:51;3.10;58.80
19039;DHT22;9652;49.014;12.052;2023-03-01T05:05:21;3.10;58.80
19039;DHT22;9652;49.014;12.052;2023-03-01T05:07:52;3.10;58.80
19039;DHT22;9652;49.014;12.052;2023-03-01T05:10:20;3.10;58.90
19039;DHT22;9652;49.014;12.052;2023-03-01T05:12:47;3.10;58.80
19039;DHT22;9652;49.014;12.052;2023-03-01T05:15:15;3.00;58.80
19039;DHT22;9652;49.014;12.052;2023-03-01T05:17:43;3.00;58.80
19039;DHT22;9652;49.014;12.052;2023-03-01T05:20:11;3.10;58.90
19039;DHT22;9652;49.014;12.052;2023-03-01T05:22:39;3.00;58.90
19039;DHT22;9652;49.014;12.052;2023-03-01T05:25:06;3.00;58.90
19039;DHT22;9652;49.014;12.052;2023-03-01T05:27:34;3.00;58.90
19039;DHT22;9652;49.014;12.052;2023-03-01T05:30:02;3.00;58.80
19039;DHT22;9652;49.014;12.052;2023-03-01T05:32:40;3.00;58.80
19039;DHT22;9652;49.014;12.052;2023-03-01T05:35:11;2.90;58.80
19039;DHT22;9652;49.014;12.052;2023-03-01T05:37:41;2.90;58.80
19039;DHT22;9652;49.014;12.052;2023-03-01T05:40:10;2.90;58.90
19039;DHT22;9652;49.014;12.052;2023-03-01T05:42:46;2.90;59.00
19039;DHT22;9652;49.014;12.052;2023-03-01T05:45:15;2.90;59.00
19039;DHT22;9652;49.014;12.052;2023-03-01T05:47:46;2.90;59.00
19039;DHT22;9652;49.014;12.052;2023-03-01T05:50:16;2.90;59.10
19039;DHT22;9652;49.014;12.052;2023-03-01T05:52:46;2.80;59.10
19039;DHT22;9652;49.014;12.052;2023-03-01T05:55:15;2.80;59.10
19039;DHT22;9652;49.014;12.052;2023-03-01T05:57:42;2.80;59.20
19039;DHT22;9652;49.014;12.052;2023-03-01T06:00:11;2.80;59.10
19039;DHT22;9652;49.014;12.052;2023-03-01T06:02:40;2.80;59.20
19039;DHT22;9652;49.014;12.052;2023-03-01T06:05:11;2.80;59.30
19039;DHT22;9652;49.014;12.052;2023-03-01T06:07:39;2.80;59.40
19039;DHT22;9652;49.014;12.052;2023-03-01T06:10:08;2.80;59.40
19039;DHT22;9652;49.014;12.052;2023-03-01T06:12:37;2.80;59.40
19039;DHT22;9652;49.014;12.052;2023-03-01T06:15:07;2.80;59.40
19039;DHT22;9652;49.014;12.052;2023-03-01T06:17:36;2.90;59.50
19039;DHT22;9652;49.014;12.052;2023-03-01T06:20:10;2.90;59.50
19039;DHT22;9652;49.014;12.052;2023-03-01T06:22:39;2.90;59.50
19039;DHT22;9652;49.014;12.052;2023-03-01T06:25:06;2.90;59.50
19039;DHT22;9652;49.014;12.052;2023-03-01T06:27:35;2.90;59.50
19039;DHT22;9652;49.014;12.052;2023-03-01T06:30:03;2.90;59.50
19039;DHT22;9652;49.014;12.052;2023-03-01T06:32:31;3.00;59.60
19039;DHT22;9652;49.014;12.052;2023-03-01T06:34:58;3.00;59.60
19039;DHT22;9652;49.014;12.052;2023-03-01T06:37:26;3.00;59.50
19039;DHT22;9652;49.014;12.052;2023-03-01T06:39:53;3.00;59.50
19039;DHT22;9652;49.014;12.052;2023-03-01T06:42:20;3.00;59.50
19039;DHT22;9652;49.014;12.052;2023-03-01T06:44:47;3.10;59.60
19039;DHT22;9652;49.014;12.052;2023-03-01T06:47:14;3.10;59.60
19039;DHT22;9652;49.014;12.052;2023-03-01T06:49:41;3.20;59.60
19039;DHT22;9652;49.014;12.052;2023-03-01T06:52:08;3.20;59.60
19039;DHT22;9652;49.014;12.052;2023-03-01T06:54:36;3.20;59.60
19039;DHT22;9652;49.014;12.052;2023-03-01T06:57:03;3.30;59.60
19039;DHT22;9652;49.014;12.052;2023-03-01T06:59:30;3.30;59.60
19039;DHT22;9652;49.014;12.052;2023-03-01T07:01:57;3.40;59.70
19039;DHT22;9652;49.014;12.052;2023-03-01T07:04:24;3.40;59.60
19039;DHT22;9652;49.014;12.052;2023-03-01T07:06:54;3.40;59.60
19039;DHT22;9652;49.014;12.052;2023-03-01T07:09:21;3.40;59.60
19039;DHT22;9652;49.014;12.052;2023-03-01T07:11:50;3.50;59.60
19039;DHT22;9652;49.014;12.052;2023-03-01T07:14:17;3.50;59.50
19039;DHT22;9652;49.014;12.052;2023-03-01T07:16:45;3.60;59.60
19039;DHT22;9652;49.014;12.052;2023-03-01T07:19:12;3.60;59.50
19039;DHT22;9652;49.014;12.052;2023-03-01T07:21:39;3.70;59.50
19039;DHT22;9652;49.014;12.052;2023-03-01T07:24:07;3.70;59.50
19039;DHT22;9652;49.014;12.052;2023-03-01T07:26:34;3.80;59.50
19039;DHT22;9652;49.014;12.052;2023-03-01T07:29:04;3.80;59.40
19039;DHT22;9652;49.014;12.052;2023-03-01T07:31:32;3.90;59.40
19039;DHT22;9652;49.014;12.052;2023-03-01T07:34:00;3.90;59.40
19039;DHT22;9652;49.014;12.052;2023-03-01T07:36:27;4.00;59.50
19039;DHT22;9652;49.014;12.052;2023-03-01T07:38:55;4.00;59.40
19039;DHT22;9652;49.014;12.052;2023-03-01T07:41:23;4.10;59.40
19039;DHT22;9652;49.014;12.052;2023-03-01T07:43:50;4.10;59.30
19039;DHT22;9652;49.014;12.052;2023-03-01T07:46:18;4.20;59.40
19039;DHT22;9652;49.014;12.052;2023-03-01T07:48:46;4.30;59.30
19039;DHT22;9652;49.014;12.052;2023-03-01T07:51:13;4.30;59.20
19039;DHT22;9652;49.014;12.052;2023-03-01T07:53:40;4.40;59.20
19039;DHT22;9652;49.014;12.052;2023-03-01T07:56:08;4.40;59.10
19039;DHT22;9652;49.014;12.052;2023-03-01T07:58:38;4.50;59.20
19039;DHT22;9652;49.014;12.052;2023-03-01T08:01:08;4.60;59.20
19039;DHT22;9652;49.014;12.052;2023-03-01T08:03:38;4.60;59.20
19039;DHT22;9652;49.014;12.052;2023-03-01T08:06:07;4.70;59.10
19039;DHT22;9652;49.014;12.052;2023-03-01T08:08:36;4.70;59.10
19039;DHT22;9652;49.014;12.052;2023-03-01T08:11:05;4.80;59.10
19039;DHT22;9652;49.014;12.052;2023-03-01T08:13:34;4.90;59.00
19039;DHT22;9652;49.014;12.052;2023-03-01T08:16:02;5.00;58.90
19039;DHT22;9652;49.014;12.052;2023-03-01T08:18:31;5.00;58.90
19039;DHT22;9652;49.014;12.052;2023-03-01T08:21:03;5.10;59.00
19039;DHT22;9652;49.014;12.052;2023-03-01T08:23:30;5.10;58.70
19039;DHT22;9652;49.014;12.052;2023-03-01T08:26:06;5.20;58.80
19039;DHT22;9652;49.014;12.052;2023-03-01T08:28:35;5.30;58.60
19039;DHT22;9652;49.014;12.052;2023-03-01T08:31:03;5.40;58.60
19039;DHT22;9652;49.014;12.052;2023-03-01T08:33:39;5.40;58.50
19039;DHT22;9652;49.014;12.052;2023-03-01T08:36:07;5.50;58.40
19039;DHT22;9652;49.014;12.052;2023-03-01T08:38:35;5.60;58.40
19039;DHT22;9652;49.014;12.052;2023-03-01T08:41:03;5.70;58.50
19039;DHT22;9652;49.014;12.052;2023-03-01T08:43:31;5.70;58.50
19039;DHT22;9652;49.014;12.052;2023-03-01T08:45:58;5.70;58.50
19039;DHT22;9652;49.014;12.052;2023-03-01T08:48:25;5.80;58.40
19039;DHT22;9652;49.014;12.052;2023-03-01T08:50:54;5.90;58.30
19039;DHT22;9652;49.014;12.052;2023-03-01T08:53:22;6.00;58.20
19039;DHT22;9652;49.014;12.052;2023-03-01T08:55:49;6.10;58.30
19039;DHT22;9652;49.014;12.052;2023-03-01T08:58:16;6.20;58.30
19039;DHT22;9652;49.014;12.052;2023-03-01T09:00:43;6.20;58.00
19039;DHT22;9652;49.014;12.052;2023-03-01T09:03:10;6.40;58.00
19039;DHT22;9652;49.014;12.052;2023-03-01T09:05:37;6.40;57.90
19039;DHT22;9652;49.014;12.052;2023-03-01T09:08:05;6.50;57.70
19039;DHT22;9652;49.014;12.052;2023-03-01T09:10:38;6.50;57.60
19039;DHT22;9652;49.014;12.052;2023-03-01T09:13:05;6.60;57.60
19039;DHT22;9652;49.014;12.052;2023-03-01T09:15:32;6.70;57.60
19039;DHT22;9652;49.014;12.052;2023-03-01T09:18:00;6.80;57.60
19039;DHT22;9652;49.014;12.052;2023-03-01T09:20:27;6.90;57.50
19039;DHT22;9652;49.014;12.052;2023-03-01T09:22:54;7.00;57.40
19039;DHT22;9652;49.014;12.052;2023-03-01T09:25:21;7.10;57.50
19039;DHT22;9652;49.014;12.052;2023-03-01T09:27:51;7.20;57.40
19039;DHT22;9652;49.014;12.052;2023-03-01T09:30:19;7.30;57.30
19039;DHT22;9652;49.014;12.052;2023-03-01T09:32:47;7.30;57.40
19039;DHT22;9652;49.014;12.052;2023-03-01T09:35:14;7.50;57.00
19039;DHT22;9652;49.014;12.052;2023-03-01T09:37:41;7.60;57.10
19039;DHT22;9652;49.014;12.052;2023-03-01T09:40:14;7.60;56.80
19039;DHT22;9652;49.014;12.052;2023-03-01T09:42:50;7.70;56.50
19039;DHT22;9652;49.014;12.052;2023-03-01T09:45:29;7.70;56.30
19039;DHT22;9652;49.014;12.052;2023-03-01T09:48:02;7.90;56.40
19039;DHT22;9652;49.014;12.052;2023-03-01T09:50:35;7.90;56.50
19039;DHT22;9652;49.014;12.052;2023-03-01T09:53:13;8.00;56.30
19039;DHT22;9652;49.014;12.052;2023-03-01T09:55:44;8.10;56.80
19039;DHT22;9652;49.014;12.052;2023-03-01T09:58:31;8.20;56.30
19039;DHT22;9652;49.014;12.052;2023-03-01T10:01:19;8.30;55.80
19039;DHT22;9652;49.014;12.052;2023-03-01T10:04:24;8.30;55.60
19039;DHT22;9652;49.014;12.052;2023-03-01T10:07:15;8.40;55.20
19039;DHT22;9652;49.014;12.052;2023-03-01T10:09:48;8.50;55.40
19039;DHT22;9652;49.014;12.052;2023-03-01T10:12:17;8.50;55.60
19039;DHT22;9652;49.014;12.052;2023-03-01T10:14:55;8.60;55.50
19039;DHT22;9652;49.014;12.052;2023-03-01T10:17:32;8.60;55.10
19039;DHT22;9652;49.014;12.052;2023-03-01T10:20:15;8.70;55.30
19039;DHT22;9652;49.014;12.052;2023-03-01T10:22:45;8.80;55.00
19039;DHT22;9652;49.014;12.052;2023-03-01T10:25:22;8.80;55.50
19039;DHT22;9652;49.014;12.052;2023-03-01T10:28:02;8.90;55.10
19039;DHT22;9652;49.014;12.052;2023-03-01T10:30:39;9.00;55.10
19039;DHT22;9652;49.014;12.052;2023-03-01T10:33:15;9.10;54.80
19039;DHT22;9652;49.014;12.052;2023-03-01T10:35:47;9.10;54.50
19039;DHT22;9652;49.014;12.052;2023-03-01T10:38:15;9.20;54.90
19039;DHT22;9652;49.014;12.052;2023-03-01T10:40:55;9.20;54.90
19039;DHT22;9652;49.014;12.052;2023-03-01T10:43:24;9.30;54.30
19039;DHT22;9652;49.014;12.052;2023-03-01T10:45:54;9.50;54.30
19039;DHT22;9652;49.014;12.052;2023-03-01T10:48:23;9.40;54.30
19039;DHT22;9652;49.014;12.052;2023-03-01T10:51:05;9.50;54.20
19039;DHT22;9652;49.014;12.052;2023-03-01T10:53:35;9.50;53.50
19039;DHT22;9652;49.014;12.052;2023-03-01T10:56:06;9.60;53.80
19039;DHT22;9652;49.014;12.052;2023-03-01T10:58:35;9.70;53.60
19039;DHT22;9652;49.014;12.052;2023-03-01T11:01:06;9.70;53.70
19039;DHT22;9652;49.014;12.052;2023-03-01T11:04:09;9.80;53.60
19039;DHT22;9652;49.014;12.052;2023-03-01T11:06:39;9.80;53.00
19039;DHT22;9652;49.014;12.052;2023-03-01T11:09:14;9.90;53.60
19039;DHT22;9652;49.014;12.052;2023-03-01T11:11:43;9.90;53.20
19039;DHT22;9652;49.014;12.052;2023-03-01T11:14:16;10.00;53.60
19039;DHT22;9652;49.014;12.052;2023-03-01T11:16:48;10.00;53.00
19039;DHT22;9652;49.014;12.052;2023-03-01T11:19:26;10.10;52.80
19039;DHT22;9652;49.014;12.052;2023-03-01T11:22:01;10.10;52.80
19039;DHT22;9652;49.014;12.052;2023-03-01T11:24:36;10.20;52.60
19039;DHT22;9652;49.014;12.052;2023-03-01T11:27:14;10.20;53.00
19039;DHT22;9652;49.014;12.052;2023-03-01T11:29:47;10.40;52.40
19039;DHT22;9652;49.014;12.052;2023-03-01T11:32:24;10.30;52.80
19039;DHT22;9652;49.014;12.052;2023-03-01T11:34:57;10.40;52.60
19039;DHT22;9652;49.014;12.052;2023-03-01T11:37:32;10.40;52.40
19039;DHT22;9652;49.014;12.052;2023-03-01T11:40:12;10.40;52.20
19039;DHT22;9652;49.014;12.052;2023-03-01T11:42:55;10.50;52.30
19039;DHT22;9652;49.014;12.052;2023-03-01T11:45:41;10.50;52.20
19039;DHT22;9652;49.014;12.052;2023-03-01T11:48:33;10.60;52.30
19039;DHT22;9652;49.014;12.052;2023-03-01T11:51:18;10.60;51.80
19039;DHT22;9652;49.014;12.052;2023-03-01T11:56:50;10.70;52.00
19039;DHT22;9652;49.014;12.052;2023-03-01T11:59:49;10.80;51.80
19039;DHT22;9652;49.014;12.052;2023-03-01T12:06:19;10.80;51.70
19039;DHT22;9652;49.014;12.052;2023-03-01T12:09:05;10.90;51.50
19039;DHT22;9652;49.014;12.052;2023-03-01T12:12:00;11.00;51.90
19039;DHT22;9652;49.014;12.052;2023-03-01T12:14:59;10.90;51.50
19039;DHT22;9652;49.014;12.052;2023-03-01T12:17:56;10.90;51.20
19039;DHT22;9652;49.014;12.052;2023-03-01T12:20:42;11.00;51.40
19039;DHT22;9652;49.014;12.052;2023-03-01T12:23:39;11.00;51.80
19039;DHT22;9652;49.014;12.052;2023-03-01T12:26:27;11.00;51.50
19039;DHT22;9652;49.014;12.052;2023-03-01T12:29:16;11.10;51.80
19039;DHT22;9652;49.014;12.052;2023-03-01T12:35:24;11.20;51.70
19039;DHT22;9652;49.014;12.052;2023-03-01T12:38:14;11.20;52.10
19039;DHT22;9652;49.014;12.052;2023-03-01T12:41:20;11.30;52.10
19039;DHT22;9652;49.014;12.052;2023-03-01T12:44:15;11.30;51.60
19039;DHT22;9652;49.014;12.052;2023-03-01T12:47:02;11.30;51.60
19039;DHT22;9652;49.014;12.052;2023-03-01T12:49:41;11.30;51.50
19039;DHT22;9652;49.014;12.052;2023-03-01T12:52:15;11.30;51.40
19039;DHT22;9652;49.014;12.052;2023-03-01T12:54:48;11.30;51.70
19039;DHT22;9652;49.014;12.052;2023-03-01T12:57:25;11.30;51.80
19039;DHT22;9652;49.014;12.052;2023-03-01T13:00:10;11.30;51.60
19039;DHT22;9652;49.014;12.052;2023-03-01T13:02:59;11.30;51.70
19039;DHT22;9652;49.014;12.052;2023-03-01T13:05:40;11.30;51.60
19039;DHT22;9652;49.014;12.052;2023-03-01T13:08:22;11.40;51.60
19039;DHT22;9652;49.014;12.052;2023-03-01T13:10:58;11.40;51.70
19039;DHT22;9652;49.014;12.052;2023-03-01T13:13:30;11.40;51.90
19039;DHT22;9652;49.014;12.052;2023-03-01T13:19:12;11.50;51.50
19039;DHT22;9652;49.014;12.052;2023-03-01T13:21:41;11.50;52.00
19039;DHT22;9652;49.014;12.052;2023-03-01T13:24:28;11.60;51.90
19039;DHT22;9652;49.014;12.052;2023-03-01T13:27:10;11.60;51.60
19039;DHT22;9652;49.014;12.052;2023-03-01T13:29:53;11.60;51.50
19039;DHT22;9652;49.014;12.052;2023-03-01T13:32:23;11.70;51.80
19039;DHT22;9652;49.014;12.052;2023-03-01T13:35:00;11.70;51.90
19039;DHT22;9652;49.014;12.052;2023-03-01T13:37:34;11.70;51.70
19039;DHT22;9652;49.014;12.052;2023-03-01T13:43:29;11.80;51.60
19039;DHT22;9652;49.014;12.052;2023-03-01T13:46:00;11.90;51.50
19039;DHT22;9652;49.014;12.052;2023-03-01T13:48:30;11.90;51.60
19039;DHT22;9652;49.014;12.052;2023-03-01T13:51:02;11.90;51.60
19039;DHT22;9652;49.014;12.052;2023-03-01T13:53:34;12.10;51.50
19039;DHT22;9652;49.014;12.052;2023-03-01T13:56:08;11.90;51.50
19039;DHT22;9652;49.014;12.052;2023-03-01T13:58:47;12.10;51.70
19039;DHT22;9652;49.014;12.052;2023-03-01T14:01:32;12.00;51.50
19039;DHT22;9652;49.014;12.052;2023-03-01T14:04:02;12.10;51.20
19039;DHT22;9652;49.014;12.052;2023-03-01T14:06:31;12.20;51.50
19039;DHT22;9652;49.014;12.052;2023-03-01T14:09:05;12.10;51.40
19039;DHT22;9652;49.014;12.052;2023-03-01T14:11:56;12.20;51.00
19039;DHT22;9652;49.014;12.052;2023-03-01T14:14:46;12.10;50.90
19039;DHT22;9652;49.014;12.052;2023-03-01T14:17:32;12.10;50.90
19039;DHT22;9652;49.014;12.052;2023-03-01T14:20:18;12.10;50.80
19039;DHT22;9652;49.014;12.052;2023-03-01T14:22:48;12.10;51.00
19039;DHT22;9652;49.014;12.052;2023-03-01T14:25:25;12.10;51.20
19039;DHT22;9652;49.014;12.052;2023-03-01T14:27:58;12.10;51.10
19039;DHT22;9652;49.014;12.052;2023-03-01T14:30:32;12.10;51.30
19039;DHT22;9652;49.014;12.052;2023-03-01T14:33:15;12.10;51.40
19039;DHT22;9652;49.014;12.052;2023-03-01T14:35:53;12.20;51.40
19039;DHT22;9652;49.014;12.052;2023-03-01T14:38:23;12.20;51.40
19039;DHT22;9652;49.014;12.052;2023-03-01T14:40:57;12.20;51.50
19039;DHT22;9652;49.014;12.052;2023-03-01T14:43:28;12.20;51.40
19039;DHT22;9652;49.014;12.052;2023-03-01T14:45:57;12.20;51.60
19039;DHT22;9652;49.014;12.052;2023-03-01T14:48:27;12.20;51.80
19039;DHT22;9652;49.014;12.052;2023-03-01T14:50:56;12.30;51.70
19039;DHT22;9652;49.014;12.052;2023-03-01T14:53:27;12.30;51.80
19039;DHT22;9652;49.014;12.052;2023-03-01T14:55:59;12.30;51.60
19039;DHT22;9652;49.014;12.052;2023-03-01T14:58:28;12.40;51.60
19039;DHT22;9652;49.014;12.052;2023-03-01T15:00:59;12.40;51.60
19039;DHT22;9652;49.014;12.052;2023-03-01T15:03:34;12.40;51.50
19039;DHT22;9652;49.014;12.052;2023-03-01T15:06:04;12.40;51.40
19039;DHT22;9652;49.014;12.052;2023-03-01T15:08:33;12.40;51.50
19039;DHT22;9652;49.014;12.052;2023-03-01T15:11:04;12.40;51.50
19039;DHT22;9652;49.014;12.052;2023-03-01T15:13:43;12.40;51.30
19039;DHT22;9652;49.014;12.052;2023-03-01T15:16:12;12.50;51.10
19039;DHT22;9652;49.014;12.052;2023-03-01T15:18:46;12.40;51.00
19039;DHT22;9652;49.014;12.052;2023-03-01T15:21:18;12.40;50.60
19039;DHT22;9652;49.014;12.052;2023-03-01T15:23:50;12.30;50.60
19039;DHT22;9652;49.014;12.052;2023-03-01T15:26:23;12.20;50.70
19039;DHT22;9652;49.014;12.052;2023-03-01T15:28:54;12.20;50.70
19039;DHT22;9652;49.014;12.052;2023-03-01T15:31:26;12.10;50.70
19039;DHT22;9652;49.014;12.052;2023-03-01T15:34:21;12.00;50.70
19039;DHT22;9652;49.014;12.052;2023-03-01T15:36:51;11.90;50.70
19039;DHT22;9652;49.014;12.052;2023-03-01T15:39:31;11.90;50.90
19039;DHT22;9652;49.014;12.052;2023-03-01T15:42:06;11.80;50.80
19039;DHT22;9652;49.014;12.052;2023-03-01T15:44:36;11.80;50.90
19039;DHT22;9652;49.014;12.052;2023-03-01T15:47:08;11.60;51.00
19039;DHT22;9652;49.014;12.052;2023-03-01T15:49:54;11.50;50.80
19039;DHT22;9652;49.014;12.052;2023-03-01T15:52:24;11.40;51.00
19039;DHT22;9652;49.014;12.052;2023-03-01T15:54:56;11.40;51.00
19039;DHT22;9652;49.014;12.052;2023-03-01T15:57:24;11.30;51.10
19039;DHT22;9652;49.014;12.052;2023-03-01T15:59:51;11.20;51.20
19039;DHT22;9652;49.014;12.052;2023-03-01T16:02:18;11.20;51.30
19039;DHT22;9652;49.014;12.052;2023-03-01T16:04:47;11.10;51.40
19039;DHT22;9652;49.014;12.052;2023-03-01T16:07:16;11.00;51.40
19039;DHT22;9652;49.014;12.052;2023-03-01T16:09:44;11.00;51.50
19039;DHT22;9652;49.014;12.052;2023-03-01T16:12:14;11.00;51.60
19039;DHT22;9652;49.014;12.052;2023-03-01T16:14:42;10.90;51.60
19039;DHT22;9652;49.014;12.052;2023-03-01T16:17:09;10.80;51.70
19039;DHT22;9652;49.014;12.052;2023-03-01T16:19:37;10.70;51.70
19039;DHT22;9652;49.014;12.052;2023-03-01T16:22:04;10.70;51.80
19039;DHT22;9652;49.014;12.052;2023-03-01T16:24:33;10.70;51.80
19039;DHT22;9652;49.014;12.052;2023-03-01T16:27:01;10.60;51.80
19039;DHT22;9652;49.014;12.052;2023-03-01T16:29:29;10.50;51.90